Time;durP1;ratioP1;P1;durP2;ratioP2;P2;SDS_P1;SDS_P2;PMS_P1;PMS_P2;Temp;Humidity;BMP_temperature;BMP_pressure;BME280_temperature;BME280_humidity;BME280_pressure;Samples;Min_cycle;Max_cycle;Signal;HPM_P1;HPM_P2
2021/12/04 00:01:46;;;;;;;3.83;2.50;;;;;;;;;;5031751;28;20414;-69
2021/12/04 00:04:13;;;;;;;4.30;3.20;;;;;;;;;;5036948;28;20909;-68
2021/12/04 00:06:40;;;;;;;4.80;2.70;;;;;;;;;;5037041;28;20394;-69
2021/12/04 00:09:07;;;;;;;4.13;2.83;;;;;;;;;;5036931;28;20419;-68
2021/12/04 00:11:37;;;;;;;4.43;2.60;;;;;;;;;;5036929;28;20423;-70
2021/12/04 00:14:03;;;;;;;3.83;2.80;;;;;;;;;;5036837;28;20458;-69
2021/12/04 00:16:29;;;;;;;3.60;2.80;;;;;;;;;;5036914;28;20407;-69
2021/12/04 00:18:55;;;;;;;3.07;2.50;;;;;;;;;;5039043;28;20413;-69
2021/12/04 00:21:21;;;;;;;4.37;2.67;;;;;;;;;;5056656;28;20762;-68
2021/12/04 00:23:47;;;;;;;3.67;2.80;;;;;;;;;;5056668;28;20406;-68
2021/12/04 00:26:13;;;;;;;4.73;2.60;;;;;;;;;;5056538;28;20406;-68
2021/12/04 00:28:39;;;;;;;3.83;2.43;;;;;;;;;;5055601;28;20445;-69
2021/12/04 00:31:08;;;;;;;4.60;2.83;;;;;;;;;;5056427;28;20788;-69
2021/12/04 00:33:36;;;;;;;2.63;2.30;;;;;;;;;;5056376;28;21017;-69
2021/12/04 00:36:05;;;;;;;4.30;2.60;;;;;;;;;;5053958;28;20948;-69
2021/12/04 00:49:20;;;;;;;3.00;2.67;;;;;;;;;;5036548;28;20465;-67
2021/12/04 00:51:50;;;;;;;4.00;2.60;;;;;;;;;;5036058;28;20426;-67
2021/12/04 00:54:16;;;;;;;7.37;2.73;;;;;;;;;;5036263;28;20464;-68
2021/12/04 00:56:43;;;;;;;3.53;2.70;;;;;;;;;;5035768;28;20466;-68
2021/12/04 00:59:09;;;;;;;4.53;2.70;;;;;;;;;;5036082;28;20420;-67
2021/12/04 01:01:38;;;;;;;3.40;2.40;;;;;;;;;;5036046;28;20420;-67
2021/12/04 01:04:04;;;;;;;3.93;3.00;;;;;;;;;;5035909;28;20435;-67
2021/12/04 01:06:30;;;;;;;4.00;2.73;;;;;;;;;;5036001;28;20427;-67
2021/12/04 01:08:56;;;;;;;2.63;2.43;;;;;;;;;;5035562;28;20406;-67
2021/12/04 01:11:22;;;;;;;3.80;2.60;;;;;;;;;;5036091;28;20416;-67
2021/12/04 01:13:48;;;;;;;3.67;2.40;;;;;;;;;;5034402;28;20471;-67
2021/12/04 01:16:14;;;;;;;3.40;2.80;;;;;;;;;;5035268;28;20440;-68
2021/12/04 01:18:41;;;;;;;4.03;2.87;;;;;;;;;;5044705;28;20445;-67
2021/12/04 01:21:06;;;;;;;5.63;2.93;;;;;;;;;;5054254;28;20487;-67
2021/12/04 01:23:32;;;;;;;3.37;2.73;;;;;;;;;;5055629;28;20493;-65
2021/12/04 01:25:59;;;;;;;3.20;2.90;;;;;;;;;;5054632;28;20402;-67
2021/12/04 01:28:25;;;;;;;2.93;2.43;;;;;;;;;;5053949;28;20802;-67
2021/12/04 01:30:51;;;;;;;4.60;3.00;;;;;;;;;;5055423;28;20402;-66
2021/12/04 01:33:17;;;;;;;4.33;2.50;;;;;;;;;;5054027;28;20489;-67
2021/12/04 01:35:43;;;;;;;3.87;2.90;;;;;;;;;;5045806;28;20419;-69
2021/12/04 01:38:10;;;;;;;2.93;2.60;;;;;;;;;;5035365;28;20446;-67
2021/12/04 01:40:36;;;;;;;5.70;3.23;;;;;;;;;;5035366;28;20980;-70
2021/12/04 01:43:02;;;;;;;5.90;3.10;;;;;;;;;;5035282;28;20403;-71
2021/12/04 01:45:28;;;;;;;2.63;2.30;;;;;;;;;;5054069;28;20403;-70
2021/12/04 01:48:01;;;;;;;2.77;2.50;;;;;;;;;;5055061;28;20768;-69
2021/12/04 01:50:27;;;;;;;3.40;2.73;;;;;;;;;;5054925;28;20915;-70
2021/12/04 01:52:55;;;;;;;6.30;2.47;;;;;;;;;;5054035;28;20422;-69
2021/12/04 01:55:25;;;;;;;3.90;2.53;;;;;;;;;;5054754;28;20805;-69
2021/12/04 01:57:51;;;;;;;3.30;2.77;;;;;;;;;;5054773;28;20421;-70
2021/12/04 02:00:17;;;;;;;3.07;2.40;;;;;;;;;;5043979;28;20462;-70
2021/12/04 02:02:43;;;;;;;3.70;2.20;;;;;;;;;;5034818;28;20909;-70
2021/12/04 02:05:10;;;;;;;3.23;2.93;;;;;;;;;;5037201;28;20430;-70
2021/12/04 02:07:36;;;;;;;3.90;2.80;;;;;;;;;;5034858;28;20505;-70
2021/12/04 02:10:04;;;;;;;4.13;2.60;;;;;;;;;;5044834;28;20510;-69
2021/12/04 02:12:30;;;;;;;4.00;2.67;;;;;;;;;;5054757;28;20402;-70
2021/12/04 02:14:56;;;;;;;2.70;2.47;;;;;;;;;;5054409;28;20501;-70
2021/12/04 02:17:22;;;;;;;3.50;2.50;;;;;;;;;;5049417;28;20496;-69
2021/12/04 02:19:48;;;;;;;2.53;2.20;;;;;;;;;;5034645;28;20815;-70
2021/12/04 02:22:15;;;;;;;2.70;2.50;;;;;;;;;;5034569;28;20410;-70
2021/12/04 02:24:41;;;;;;;2.47;2.27;;;;;;;;;;5034363;28;20408;-69
2021/12/04 02:27:07;;;;;;;2.73;2.53;;;;;;;;;;5036459;28;20496;-68
2021/12/04 02:29:33;;;;;;;3.60;2.67;;;;;;;;;;5054256;28;20460;-69
2021/12/04 02:32:00;;;;;;;2.97;2.70;;;;;;;;;;5054312;28;20429;-69
2021/12/04 02:34:27;;;;;;;2.43;2.20;;;;;;;;;;5052506;28;20472;-70
2021/12/04 02:36:54;;;;;;;3.80;2.47;;;;;;;;;;5034254;28;20482;-69
2021/12/04 02:39:22;;;;;;;4.13;2.70;;;;;;;;;;5034253;28;20499;-69
2021/12/04 02:41:48;;;;;;;2.83;2.63;;;;;;;;;;5034217;28;20800;-70
2021/12/04 02:44:14;;;;;;;3.30;3.00;;;;;;;;;;5036212;28;20441;-70
2021/12/04 02:46:41;;;;;;;4.37;3.20;;;;;;;;;;5053910;28;20411;-69
2021/12/04 02:49:09;;;;;;;3.30;3.00;;;;;;;;;;5053845;28;20406;-70
2021/12/04 02:51:35;;;;;;;2.53;2.33;;;;;;;;;;5053128;28;20481;-70
2021/12/04 02:54:01;;;;;;;3.87;2.97;;;;;;;;;;5053755;28;20573;-70
2021/12/04 02:56:27;;;;;;;3.57;2.90;;;;;;;;;;5053527;28;20481;-69
2021/12/04 02:59:00;;;;;;;3.07;2.87;;;;;;;;;;5053903;28;20437;-70
2021/12/04 03:01:26;;;;;;;3.20;2.90;;;;;;;;;;5052917;28;20551;-69
2021/12/04 03:03:52;;;;;;;4.20;3.10;;;;;;;;;;5053737;28;20405;-70
2021/12/04 03:06:18;;;;;;;3.20;2.90;;;;;;;;;;5052317;28;20410;-70
2021/12/04 03:08:46;;;;;;;5.53;3.03;;;;;;;;;;5052677;28;20440;-69
2021/12/04 03:11:12;;;;;;;3.47;3.17;;;;;;;;;;5052334;28;20831;-69
2021/12/04 03:13:38;;;;;;;4.33;3.17;;;;;;;;;;5053467;28;20500;-69
2021/12/04 03:16:04;;;;;;;4.07;3.43;;;;;;;;;;5053494;28;20399;-67
2021/12/04 03:18:30;;;;;;;3.30;3.00;;;;;;;;;;5043012;28;20926;-69
2021/12/04 03:20:58;;;;;;;3.80;3.13;;;;;;;;;;5033403;28;20766;-66
2021/12/04 03:23:30;;;;;;;5.43;3.50;;;;;;;;;;5033441;28;20447;-66
2021/12/04 03:25:58;;;;;;;4.27;3.80;;;;;;;;;;5033276;28;20443;-66
2021/12/04 03:28:26;;;;;;;3.80;2.80;;;;;;;;;;5033281;28;20420;-67
2021/12/04 03:31:02;;;;;;;3.43;3.00;;;;;;;;;;5033433;28;20418;-66
2021/12/04 03:41:42;;;;;;;3.50;2.80;;;;;;;;;;5050317;28;20468;-68
2021/12/04 03:44:08;;;;;;;5.47;3.00;;;;;;;;;;5033256;28;20422;-68
2021/12/04 03:46:34;;;;;;;4.07;2.90;;;;;;;;;;5033113;28;20433;-68
2021/12/04 03:49:00;;;;;;;5.53;2.93;;;;;;;;;;5032951;28;20419;-67
2021/12/04 03:51:26;;;;;;;3.50;3.20;;;;;;;;;;5033014;28;20407;-68
2021/12/04 03:53:52;;;;;;;3.43;2.90;;;;;;;;;;5033077;28;20467;-68
2021/12/04 03:56:22;;;;;;;4.27;2.93;;;;;;;;;;5032894;28;20493;-68
2021/12/04 03:58:48;;;;;;;3.20;2.80;;;;;;;;;;5035151;28;20895;-68
2021/12/04 04:01:14;;;;;;;4.27;3.60;;;;;;;;;;5052932;28;20453;-71
2021/12/04 04:03:40;;;;;;;3.13;2.63;;;;;;;;;;5053035;28;20885;-68
2021/12/04 04:06:06;;;;;;;4.20;3.40;;;;;;;;;;5052888;28;20430;-68
2021/12/04 04:08:32;;;;;;;3.00;2.70;;;;;;;;;;5050911;28;20422;-69
2021/12/04 04:10:58;;;;;;;3.67;3.27;;;;;;;;;;5052680;28;20410;-70
2021/12/04 04:13:24;;;;;;;3.87;2.97;;;;;;;;;;5052830;28;20454;-69
2021/12/04 04:15:50;;;;;;;3.40;2.70;;;;;;;;;;5051577;28;20409;-68
2021/12/04 04:18:17;;;;;;;2.70;2.50;;;;;;;;;;5032997;28;20547;-68
2021/12/04 04:20:43;;;;;;;2.77;2.50;;;;;;;;;;5032889;28;20417;-67
2021/12/04 04:23:09;;;;;;;4.17;2.97;;;;;;;;;;5032836;28;20937;-68
2021/12/04 04:25:35;;;;;;;4.13;2.30;;;;;;;;;;5032520;28;20433;-66
2021/12/04 04:28:01;;;;;;;3.70;2.50;;;;;;;;;;5032326;28;20423;-68
2021/12/04 04:30:27;;;;;;;2.10;1.90;;;;;;;;;;5032964;28;20504;-68
2021/12/04 04:32:54;;;;;;;3.60;2.20;;;;;;;;;;5032824;28;20761;-68
2021/12/04 04:35:23;;;;;;;3.13;1.50;;;;;;;;;;5046536;28;20427;-68
2021/12/04 05:13:07;;;;;;;9.33;5.20;;;;;;;;;;5049300;28;20416;-68
2021/12/04 05:20:38;;;;;;;6.50;5.07;;;;;;;;;;5037253;28;20415;-67
2021/12/04 05:23:07;;;;;;;8.90;6.43;;;;;;;;;;5055588;28;20465;-67
2021/12/04 05:25:35;;;;;;;9.07;6.10;;;;;;;;;;5055391;28;20463;-67
2021/12/04 05:28:01;;;;;;;8.40;6.33;;;;;;;;;;5055454;28;20419;-67
2021/12/04 05:30:27;;;;;;;6.93;5.50;;;;;;;;;;5054669;28;20435;-67
2021/12/04 05:32:53;;;;;;;7.17;5.30;;;;;;;;;;5055479;28;20411;-67
2021/12/04 05:35:20;;;;;;;8.07;5.40;;;;;;;;;;5055254;28;20471;-67
2021/12/04 05:37:47;;;;;;;7.43;5.33;;;;;;;;;;5054425;28;20452;-67
2021/12/04 05:40:14;;;;;;;8.80;5.97;;;;;;;;;;5054028;28;20417;-66
2021/12/04 05:42:41;;;;;;;11.70;6.67;;;;;;;;;;5055151;28;20446;-66
2021/12/04 05:45:15;;;;;;;7.77;5.97;;;;;;;;;;5055095;28;20467;-67
2021/12/04 05:47:55;;;;;;;7.90;6.20;;;;;;;;;;5054293;28;20416;-67
2021/12/04 05:55:31;;;;;;;12.97;6.17;;;;;;;;;;5054812;28;20426;-67
2021/12/04 05:57:57;;;;;;;9.20;5.57;;;;;;;;;;5054761;28;20407;-67
2021/12/04 06:00:25;;;;;;;8.00;5.63;;;;;;;;;;5054731;28;20397;-67
2021/12/04 06:02:52;;;;;;;7.43;5.57;;;;;;;;;;5053815;28;20399;-67
2021/12/04 06:05:18;;;;;;;8.00;6.03;;;;;;;;;;5054770;28;20399;-67
2021/12/04 06:07:44;;;;;;;9.07;5.63;;;;;;;;;;5035519;28;20416;-67
2021/12/04 06:10:11;;;;;;;7.60;5.40;;;;;;;;;;5034770;28;20417;-67
2021/12/04 06:12:37;;;;;;;7.60;5.37;;;;;;;;;;5034789;28;20887;-68
2021/12/04 06:15:04;;;;;;;9.30;6.13;;;;;;;;;;5036742;28;20548;-67
2021/12/04 06:17:30;;;;;;;10.90;6.00;;;;;;;;;;5054705;28;20410;-67
2021/12/04 06:22:42;;;;;;;5.43;4.57;;;;;;;;;;5054814;28;20436;-67
2021/12/04 06:25:15;;;;;;;8.73;5.23;;;;;;;;;;5047231;28;20999;-67
2021/12/04 06:27:41;;;;;;;6.10;3.73;;;;;;;;;;5034307;28;20440;-69
2021/12/04 06:30:09;;;;;;;4.00;3.60;;;;;;;;;;5034398;28;20404;-68
2021/12/04 06:32:37;;;;;;;4.37;2.97;;;;;;;;;;5034154;28;20418;-67
2021/12/04 06:35:08;;;;;;;2.60;2.00;;;;;;;;;;5034111;28;20466;-68
2021/12/04 06:37:34;;;;;;;2.03;1.47;;;;;;;;;;5034124;28;20415;-69
2021/12/04 06:40:00;;;;;;;1.20;0.97;;;;;;;;;;5049853;28;20442;-69
2021/12/04 06:42:26;;;;;;;1.20;1.10;;;;;;;;;;5052016;28;20415;-69
2021/12/04 06:44:55;;;;;;;1.47;0.77;;;;;;;;;;5053956;28;20505;-69
2021/12/04 06:47:21;;;;;;;0.90;0.60;;;;;;;;;;5053890;28;20413;-69
2021/12/04 06:49:48;;;;;;;0.93;0.83;;;;;;;;;;5053051;28;20491;-70
2021/12/04 06:52:18;;;;;;;2.33;0.63;;;;;;;;;;5052705;28;20449;-71
2021/12/04 06:54:54;;;;;;;0.60;0.60;;;;;;;;;;5053766;28;20969;-71
2021/12/04 06:57:20;;;;;;;0.70;0.70;;;;;;;;;;5052281;28;20600;-68
2021/12/04 06:59:47;;;;;;;0.60;0.50;;;;;;;;;;5051617;28;20502;-68
2021/12/04 07:02:14;;;;;;;3.33;0.50;;;;;;;;;;5053705;28;20405;-69
2021/12/04 07:04:40;;;;;;;0.70;0.60;;;;;;;;;;5053671;28;20429;-68
2021/12/04 07:07:06;;;;;;;0.60;0.50;;;;;;;;;;5053588;28;20497;-68
2021/12/04 07:09:33;;;;;;;0.60;0.60;;;;;;;;;;5048782;28;20430;-66
2021/12/04 07:11:59;;;;;;;0.60;0.50;;;;;;;;;;5033508;28;20422;-70
2021/12/04 07:14:26;;;;;;;1.30;0.60;;;;;;;;;;5033302;28;20497;-68
2021/12/04 07:16:52;;;;;;;0.50;0.50;;;;;;;;;;5033553;28;20958;-67
2021/12/04 07:19:18;;;;;;;0.60;0.50;;;;;;;;;;5036097;28;20415;-67
2021/12/04 07:21:47;;;;;;;1.50;0.60;;;;;;;;;;5053335;28;20414;-70
2021/12/04 07:24:14;;;;;;;0.60;0.53;;;;;;;;;;5053191;28;20872;-69
2021/12/04 07:26:40;;;;;;;0.67;0.50;;;;;;;;;;5053204;28;20445;-68
2021/12/04 07:29:06;;;;;;;2.87;0.60;;;;;;;;;;5052457;28;20423;-67
2021/12/04 07:31:33;;;;;;;0.97;0.50;;;;;;;;;;5053354;28;20822;-67
2021/12/04 07:33:59;;;;;;;1.43;0.70;;;;;;;;;;5053153;28;20524;-68
2021/12/04 07:36:25;;;;;;;0.70;0.50;;;;;;;;;;5051896;28;20452;-68
2021/12/04 07:38:52;;;;;;;1.70;0.60;;;;;;;;;;5038607;28;20796;-68
2021/12/04 07:41:18;;;;;;;0.60;0.57;;;;;;;;;;5033236;28;20398;-70
2021/12/04 07:43:44;;;;;;;0.63;0.63;;;;;;;;;;5033219;28;20416;-69
2021/12/04 07:46:11;;;;;;;0.70;0.57;;;;;;;;;;5044199;28;20517;-67
2021/12/04 07:48:37;;;;;;;1.13;0.60;;;;;;;;;;5049604;28;20422;-69
2021/12/04 07:51:04;;;;;;;0.60;0.60;;;;;;;;;;5053156;28;20410;-69
2021/12/04 07:53:30;;;;;;;0.70;0.60;;;;;;;;;;5052950;28;20455;-69
2021/12/04 07:55:56;;;;;;;1.43;0.70;;;;;;;;;;5051940;28;20521;-68
2021/12/04 07:58:22;;;;;;;1.67;1.57;;;;;;;;;;5052948;28;20423;-68
2021/12/04 08:00:48;;;;;;;0.60;0.60;;;;;;;;;;5053060;28;20446;-69
2021/12/04 08:03:14;;;;;;;0.80;0.60;;;;;;;;;;5052961;28;20409;-68
2021/12/04 08:05:40;;;;;;;1.73;0.80;;;;;;;;;;5052065;28;20523;-68
2021/12/04 08:08:06;;;;;;;0.90;0.73;;;;;;;;;;5052915;28;20564;-68
2021/12/04 08:10:34;;;;;;;0.70;0.70;;;;;;;;;;5052976;28;20401;-69
2021/12/04 08:13:01;;;;;;;1.40;0.70;;;;;;;;;;5038864;28;20526;-68
2021/12/04 08:15:27;;;;;;;1.20;0.90;;;;;;;;;;5032914;28;20437;-68
2021/12/04 08:17:54;;;;;;;1.60;0.70;;;;;;;;;;5031613;28;20437;-68
2021/12/04 08:20:20;;;;;;;1.00;0.80;;;;;;;;;;5032988;28;20414;-68
2021/12/04 08:22:47;;;;;;;0.80;0.80;;;;;;;;;;5046075;28;20427;-68
2021/12/04 08:25:14;;;;;;;0.67;0.67;;;;;;;;;;5054257;28;20409;-67
2021/12/04 08:27:41;;;;;;;1.07;0.80;;;;;;;;;;5056574;28;20530;-67
2021/12/04 08:30:09;;;;;;;0.70;0.70;;;;;;;;;;5053311;28;20417;-66
2021/12/04 08:32:35;;;;;;;0.80;0.60;;;;;;;;;;5036779;28;20464;-67
2021/12/04 08:35:02;;;;;;;0.73;0.70;;;;;;;;;;5035243;28;20469;-68
2021/12/04 08:37:28;;;;;;;0.67;0.67;;;;;;;;;;5036570;28;20419;-67
2021/12/04 08:39:54;;;;;;;0.93;0.70;;;;;;;;;;5035145;28;20423;-68
2021/12/04 08:42:20;;;;;;;1.40;0.90;;;;;;;;;;5036424;28;20464;-68
2021/12/04 08:44:47;;;;;;;0.87;0.87;;;;;;;;;;5050687;28;20415;-68
2021/12/04 08:47:13;;;;;;;0.73;0.70;;;;;;;;;;5055304;28;20415;-67
2021/12/04 08:49:39;;;;;;;1.17;0.77;;;;;;;;;;5056161;28;20452;-67
2021/12/04 08:52:07;;;;;;;1.23;0.80;;;;;;;;;;5056148;28;20556;-67
2021/12/04 08:54:33;;;;;;;2.30;0.80;;;;;;;;;;5056007;28;20460;-68
2021/12/04 08:56:59;;;;;;;0.70;0.70;;;;;;;;;;5049412;28;20478;-68
2021/12/04 08:59:27;;;;;;;1.73;1.00;;;;;;;;;;5036133;28;20457;-68
2021/12/04 09:01:53;;;;;;;1.30;0.90;;;;;;;;;;5036024;28;20444;-68
2021/12/04 09:04:27;;;;;;;1.67;0.90;;;;;;;;;;5035959;28;20414;-69
2021/12/04 09:06:54;;;;;;;0.80;0.80;;;;;;;;;;5048476;28;20442;-69
2021/12/04 09:09:21;;;;;;;0.80;0.80;;;;;;;;;;5055902;28;20760;-69
2021/12/04 09:11:52;;;;;;;0.90;0.90;;;;;;;;;;5054460;28;20505;-69
2021/12/04 09:14:20;;;;;;;2.00;0.70;;;;;;;;;;5054892;28;20473;-68
2021/12/04 09:16:46;;;;;;;1.17;0.83;;;;;;;;;;5055718;28;20406;-69
2021/12/04 09:19:12;;;;;;;2.20;0.87;;;;;;;;;;5055672;28;20410;-68
2021/12/04 09:21:39;;;;;;;1.37;0.87;;;;;;;;;;5055606;28;20409;-69
2021/12/04 09:24:17;;;;;;;0.90;0.83;;;;;;;;;;5054789;28;20461;-68
2021/12/04 09:26:53;;;;;;;1.00;0.90;;;;;;;;;;5054021;28;20889;-67
2021/12/04 09:32:34;;;;;;;1.10;0.90;;;;;;;;;;5040499;28;20487;-69
2021/12/04 10:05:03;;;;;;;1.63;1.43;;;;;;;;;;5041578;28;20403;-69
2021/12/04 10:16:14;;;;;;;3.70;1.10;;;;;;;;;;5050961;28;20569;-69
2021/12/04 10:34:52;;;;;;;1.00;0.90;;;;;;;;;;5054180;28;21039;-69
2021/12/04 10:37:25;;;;;;;1.50;1.00;;;;;;;;;;5054202;28;20403;-69
2021/12/04 10:39:52;;;;;;;4.30;1.00;;;;;;;;;;5053691;28;20460;-69
2021/12/04 10:42:38;;;;;;;2.47;1.03;;;;;;;;;;5034163;28;20905;-70
2021/12/04 10:45:04;;;;;;;3.33;1.20;;;;;;;;;;5034121;28;20489;-69
2021/12/04 10:47:30;;;;;;;1.77;1.00;;;;;;;;;;5033099;28;20457;-69
2021/12/04 10:52:49;;;;;;;0.80;0.80;;;;;;;;;;5033900;28;20809;-67
2021/12/04 10:55:32;;;;;;;1.00;0.80;;;;;;;;;;5033863;28;20474;-68
2021/12/04 11:00:57;;;;;;;1.30;1.20;;;;;;;;;;5033782;28;20503;-69
2021/12/04 11:20:57;;;;;;;1.20;1.10;;;;;;;;;;5033558;28;20900;-69
2021/12/04 11:26:28;;;;;;;1.33;1.23;;;;;;;;;;5033623;28;20995;-70
2021/12/04 11:34:55;;;;;;;1.40;0.70;;;;;;;;;;5033281;28;20421;-69
2021/12/04 11:42:54;;;;;;;0.80;0.77;;;;;;;;;;5035190;28;20424;-69
2021/12/04 11:45:26;;;;;;;0.80;0.70;;;;;;;;;;5049707;28;20417;-68
2021/12/04 11:47:53;;;;;;;1.43;0.80;;;;;;;;;;5053002;28;20417;-68
2021/12/04 11:50:27;;;;;;;1.10;1.10;;;;;;;;;;5052077;28;20418;-68
2021/12/04 11:52:55;;;;;;;0.77;0.77;;;;;;;;;;5033159;28;20889;-69
2021/12/04 11:55:23;;;;;;;1.00;0.90;;;;;;;;;;5032859;28;20572;-69
2021/12/04 11:57:50;;;;;;;0.80;0.80;;;;;;;;;;5032903;28;21035;-67
2021/12/04 12:00:23;;;;;;;0.90;0.80;;;;;;;;;;5036408;28;20428;-69
2021/12/04 12:02:50;;;;;;;1.43;0.60;;;;;;;;;;5037298;28;20477;-69
2021/12/04 12:05:20;;;;;;;1.03;0.93;;;;;;;;;;5037147;28;20900;-69
2021/12/04 12:07:54;;;;;;;1.00;0.70;;;;;;;;;;5036846;28;20406;-69
2021/12/04 12:10:21;;;;;;;0.90;0.80;;;;;;;;;;5037093;28;20497;-67
2021/12/04 12:12:48;;;;;;;1.90;0.77;;;;;;;;;;5037094;28;20406;-67
2021/12/04 12:15:33;;;;;;;0.80;0.73;;;;;;;;;;5036932;28;20488;-68
2021/12/04 12:18:15;;;;;;;1.67;0.70;;;;;;;;;;5055765;28;20958;-68
2021/12/04 12:20:50;;;;;;;0.97;0.67;;;;;;;;;;5056826;28;20907;-67
2021/12/04 12:23:20;;;;;;;0.80;0.77;;;;;;;;;;5056765;28;20401;-66
2021/12/04 12:34:06;;;;;;;0.60;0.60;;;;;;;;;;5056543;28;20459;-67
2021/12/04 12:36:33;;;;;;;3.33;1.03;;;;;;;;;;5054578;28;20444;-67
2021/12/04 12:38:59;;;;;;;0.80;0.80;;;;;;;;;;5056491;28;20762;-67
2021/12/04 12:41:34;;;;;;;0.80;0.80;;;;;;;;;;5056263;28;20880;-68
2021/12/04 12:44:21;;;;;;;1.40;0.90;;;;;;;;;;5055213;28;20429;-67
2021/12/04 12:46:47;;;;;;;1.23;0.90;;;;;;;;;;5056132;28;20413;-67
2021/12/04 12:49:34;;;;;;;2.17;0.90;;;;;;;;;;5056276;28;20413;-67
2021/12/04 12:52:03;;;;;;;1.87;1.00;;;;;;;;;;5055414;28;20787;-67
2021/12/04 12:54:32;;;;;;;1.37;0.70;;;;;;;;;;5055993;28;20564;-69
2021/12/04 12:56:59;;;;;;;1.03;0.80;;;;;;;;;;5055835;28;20490;-68
2021/12/04 12:59:42;;;;;;;1.70;0.77;;;;;;;;;;5054808;28;20417;-68
2021/12/04 13:13:23;;;;;;;1.00;0.90;;;;;;;;;;5056115;28;20829;-68
2021/12/04 13:15:49;;;;;;;1.17;1.07;;;;;;;;;;5055679;28;20420;-69
2021/12/04 13:18:21;;;;;;;0.80;0.80;;;;;;;;;;5053692;28;20458;-67
2021/12/04 13:20:48;;;;;;;1.20;1.10;;;;;;;;;;5055810;28;20420;-68
2021/12/04 13:23:16;;;;;;;0.90;0.80;;;;;;;;;;5055577;28;20398;-70
2021/12/04 13:25:56;;;;;;;1.20;0.80;;;;;;;;;;5055550;28;20455;-67
2021/12/04 13:28:25;;;;;;;1.07;0.97;;;;;;;;;;5054640;28;20425;-67
2021/12/04 13:30:51;;;;;;;0.70;0.70;;;;;;;;;;5055422;28;20459;-70
2021/12/04 13:33:17;;;;;;;5.47;1.00;;;;;;;;;;5055366;28;20402;-71
2021/12/04 13:35:46;;;;;;;2.30;1.00;;;;;;;;;;5054566;28;20437;-69
2021/12/04 13:38:13;;;;;;;1.03;0.90;;;;;;;;;;5051957;28;20413;-68
2021/12/04 13:40:39;;;;;;;1.03;0.93;;;;;;;;;;5055340;28;20410;-69
2021/12/04 13:43:11;;;;;;;0.90;0.90;;;;;;;;;;5055327;28;20410;-67
2021/12/04 13:45:37;;;;;;;0.93;0.90;;;;;;;;;;5054373;28;20444;-68
2021/12/04 13:48:04;;;;;;;3.63;1.50;;;;;;;;;;5053745;28;20822;-67
2021/12/04 13:52:59;;;;;;;0.83;0.83;;;;;;;;;;5055036;28;20436;-69
2021/12/04 13:55:26;;;;;;;1.30;1.00;;;;;;;;;;5041492;28;20557;-69
2021/12/04 13:57:53;;;;;;;1.87;1.37;;;;;;;;;;5034947;28;20422;-67
2021/12/04 14:00:19;;;;;;;1.43;1.20;;;;;;;;;;5035029;28;20410;-67
2021/12/04 14:02:45;;;;;;;1.33;1.07;;;;;;;;;;5034898;28;20469;-67
2021/12/04 14:05:19;;;;;;;1.47;1.37;;;;;;;;;;5034871;28;20448;-69
2021/12/04 14:07:46;;;;;;;4.70;1.70;;;;;;;;;;5034779;28;20386;-68
2021/12/04 14:10:14;;;;;;;2.23;1.30;;;;;;;;;;5034764;28;20407;-69
2021/12/04 14:12:40;;;;;;;3.60;1.33;;;;;;;;;;5034659;28;20482;-68
2021/12/04 14:15:09;;;;;;;1.53;1.20;;;;;;;;;;5034669;28;20466;-68
2021/12/04 14:17:36;;;;;;;1.60;1.17;;;;;;;;;;5034801;28;20414;-67
2021/12/04 14:20:02;;;;;;;1.20;1.10;;;;;;;;;;5034620;28;20413;-67
2021/12/04 14:22:28;;;;;;;2.33;1.30;;;;;;;;;;5033602;28;20402;-67
2021/12/04 14:25:00;;;;;;;1.43;1.00;;;;;;;;;;5053050;28;20784;-67
2021/12/04 14:27:28;;;;;;;0.80;0.80;;;;;;;;;;5053035;28;20429;-67
2021/12/04 14:29:59;;;;;;;1.20;1.00;;;;;;;;;;5054296;28;20963;-67
2021/12/04 14:32:26;;;;;;;1.50;1.40;;;;;;;;;;5054396;28;20401;-66
2021/12/04 14:35:00;;;;;;;1.27;1.17;;;;;;;;;;5053432;28;20560;-67
2021/12/04 14:37:27;;;;;;;1.30;1.00;;;;;;;;;;5053850;28;20418;-68
2021/12/04 14:39:53;;;;;;;2.20;1.63;;;;;;;;;;5054229;28;20412;-68
2021/12/04 14:42:19;;;;;;;1.93;1.20;;;;;;;;;;5053227;28;20424;-68
2021/12/04 14:44:52;;;;;;;1.63;1.23;;;;;;;;;;5053960;28;20477;-67
2021/12/04 14:47:19;;;;;;;0.80;0.80;;;;;;;;;;5053942;28;20398;-67
2021/12/04 14:49:46;;;;;;;0.93;0.93;;;;;;;;;;5050506;28;20887;-67
2021/12/04 14:52:22;;;;;;;1.33;1.20;;;;;;;;;;5033971;28;20428;-69
2021/12/04 14:54:49;;;;;;;1.67;1.00;;;;;;;;;;5032694;28;20832;-67
2021/12/04 14:57:17;;;;;;;1.77;1.30;;;;;;;;;;5033563;28;20489;-67
2021/12/04 14:59:43;;;;;;;1.53;1.43;;;;;;;;;;5033853;28;20454;-67
2021/12/04 15:02:20;;;;;;;1.50;1.40;;;;;;;;;;5033740;28;20411;-69
2021/12/04 15:04:46;;;;;;;2.00;1.07;;;;;;;;;;5033624;28;20751;-69
2021/12/04 15:07:23;;;;;;;1.20;1.10;;;;;;;;;;5032185;28;20450;-70
2021/12/04 15:09:49;;;;;;;1.30;1.20;;;;;;;;;;5053675;28;20405;-70
2021/12/04 15:12:25;;;;;;;1.87;1.40;;;;;;;;;;5053662;28;20409;-69
2021/12/04 15:14:55;;;;;;;1.50;1.40;;;;;;;;;;5053398;28;20472;-68
2021/12/04 15:17:21;;;;;;;1.57;1.40;;;;;;;;;;5034470;28;20496;-67
2021/12/04 15:19:48;;;;;;;2.40;1.30;;;;;;;;;;5032231;28;20430;-68
2021/12/04 15:22:16;;;;;;;1.60;1.50;;;;;;;;;;5033508;28;20414;-68
2021/12/04 15:24:43;;;;;;;1.37;1.27;;;;;;;;;;5033379;28;20485;-67
2021/12/04 15:27:15;;;;;;;1.50;1.40;;;;;;;;;;5033390;28;20427;-68
2021/12/04 15:29:44;;;;;;;2.03;1.80;;;;;;;;;;5032128;28;20428;-67
2021/12/04 15:32:12;;;;;;;2.03;1.93;;;;;;;;;;5033313;28;20398;-67
2021/12/04 15:34:41;;;;;;;2.10;1.80;;;;;;;;;;5032954;28;20492;-70
2021/12/04 15:37:08;;;;;;;2.17;1.57;;;;;;;;;;5033338;28;20415;-70
2021/12/04 15:39:36;;;;;;;2.50;1.30;;;;;;;;;;5033250;28;20901;-69
2021/12/04 15:47:47;;;;;;;1.50;1.40;;;;;;;;;;5052973;28;20764;-69
2021/12/04 15:52:57;;;;;;;2.23;1.60;;;;;;;;;;5035960;28;20425;-70
2021/12/04 15:55:28;;;;;;;1.40;1.30;;;;;;;;;;5032780;28;20897;-68
2021/12/04 15:57:54;;;;;;;1.57;1.47;;;;;;;;;;5033146;28;20768;-69
2021/12/04 16:00:21;;;;;;;1.93;1.50;;;;;;;;;;5032761;28;20414;-69
2021/12/04 16:02:51;;;;;;;1.70;1.60;;;;;;;;;;5032989;28;20403;-70
2021/12/04 16:05:24;;;;;;;2.00;1.80;;;;;;;;;;5032965;28;20964;-69
2021/12/04 16:08:11;;;;;;;2.13;1.93;;;;;;;;;;5032947;28;20394;-68
2021/12/04 16:10:38;;;;;;;2.80;1.87;;;;;;;;;;5032832;28;20747;-68
2021/12/04 16:13:06;;;;;;;1.43;1.23;;;;;;;;;;5032888;28;20427;-69
2021/12/04 16:15:32;;;;;;;2.50;1.33;;;;;;;;;;5032753;28;20476;-68
2021/12/04 16:17:59;;;;;;;1.90;1.50;;;;;;;;;;5032879;28;20409;-67
2021/12/04 16:20:28;;;;;;;1.37;1.27;;;;;;;;;;5032867;28;20794;-68
2021/12/04 16:22:58;;;;;;;2.60;1.67;;;;;;;;;;5032849;28;20403;-68
2021/12/04 16:25:26;;;;;;;2.27;1.87;;;;;;;;;;5032782;28;20544;-70
2021/12/04 16:28:06;;;;;;;1.47;1.37;;;;;;;;;;5032576;28;20430;-70
2021/12/04 16:30:59;;;;;;;2.20;1.60;;;;;;;;;;5048036;28;20463;-70
2021/12/04 16:38:30;;;;;;;1.73;1.57;;;;;;;;;;5044463;28;20410;-70
2021/12/04 16:40:57;;;;;;;1.73;1.63;;;;;;;;;;5032793;28;20484;-68
2021/12/04 16:43:34;;;;;;;2.23;1.80;;;;;;;;;;5031281;28;20505;-69
2021/12/04 16:46:02;;;;;;;1.93;1.70;;;;;;;;;;5033828;28;20477;-69
2021/12/04 16:48:33;;;;;;;2.50;2.23;;;;;;;;;;5036240;28;20426;-71
2021/12/04 16:56:28;;;;;;;3.17;2.70;;;;;;;;;;5046874;28;20492;-70
2021/12/04 16:58:55;;;;;;;1.90;1.80;;;;;;;;;;5056187;28;20397;-70
2021/12/04 17:01:22;;;;;;;3.07;2.33;;;;;;;;;;5054683;28;20408;-70
2021/12/04 17:03:48;;;;;;;1.83;1.73;;;;;;;;;;5055165;28;20902;-68
2021/12/04 17:06:15;;;;;;;4.73;2.17;;;;;;;;;;5055972;28;20404;-67
2021/12/04 17:08:41;;;;;;;2.30;2.10;;;;;;;;;;5055763;28;20397;-67
2021/12/04 17:11:07;;;;;;;3.70;2.47;;;;;;;;;;5055851;28;20525;-68
2021/12/04 17:13:34;;;;;;;3.53;2.60;;;;;;;;;;5042645;28;20426;-68
2021/12/04 17:16:00;;;;;;;2.33;2.13;;;;;;;;;;5034491;28;20441;-68
2021/12/04 17:18:26;;;;;;;2.73;2.53;;;;;;;;;;5035809;28;20407;-67
2021/12/04 17:20:54;;;;;;;2.20;2.00;;;;;;;;;;5035510;28;20413;-68
2021/12/04 17:23:23;;;;;;;1.80;1.70;;;;;;;;;;5035670;28;20845;-68
2021/12/04 17:25:50;;;;;;;1.80;1.50;;;;;;;;;;5035678;28;20430;-68
2021/12/04 17:28:17;;;;;;;2.83;2.03;;;;;;;;;;5034289;28;20509;-68
2021/12/04 17:30:43;;;;;;;1.90;1.80;;;;;;;;;;5035410;28;20429;-68
2021/12/04 17:33:10;;;;;;;2.30;1.70;;;;;;;;;;5035531;28;20398;-68
2021/12/04 17:35:36;;;;;;;2.23;1.37;;;;;;;;;;5035538;28;20516;-68
2021/12/04 17:38:04;;;;;;;2.20;2.00;;;;;;;;;;5041630;28;20482;-67
2021/12/04 17:40:30;;;;;;;2.47;2.27;;;;;;;;;;5052086;28;20394;-68
2021/12/04 17:42:57;;;;;;;3.50;1.97;;;;;;;;;;5055408;28;20413;-68
2021/12/04 17:45:23;;;;;;;2.87;1.93;;;;;;;;;;5051780;28;20779;-69
2021/12/04 17:47:49;;;;;;;1.83;1.73;;;;;;;;;;5035184;28;20402;-68
2021/12/04 17:50:17;;;;;;;1.30;1.07;;;;;;;;;;5035321;28;20399;-67
2021/12/04 17:52:44;;;;;;;1.67;1.50;;;;;;;;;;5035266;28;21008;-67
2021/12/04 17:55:11;;;;;;;1.63;1.53;;;;;;;;;;5053774;28;20472;-67
2021/12/04 17:57:39;;;;;;;2.03;1.10;;;;;;;;;;5054524;28;20565;-67
2021/12/04 18:00:07;;;;;;;1.63;1.33;;;;;;;;;;5054907;28;20977;-67
2021/12/04 18:02:33;;;;;;;1.23;1.13;;;;;;;;;;5054074;28;20896;-68
2021/12/04 18:05:01;;;;;;;1.07;0.97;;;;;;;;;;5053708;28;20745;-69
2021/12/04 18:07:28;;;;;;;1.00;0.83;;;;;;;;;;5054719;28;20757;-71
2021/12/04 18:09:57;;;;;;;1.07;0.87;;;;;;;;;;5054680;28;20475;-71
2021/12/04 18:12:27;;;;;;;1.30;0.87;;;;;;;;;;5040287;28;20426;-67